sensor_id;sensor_type;location;lat;lon;timestamp;pressure;altitude;pressure_sealevel;temperature;humidity
7333;BME280;3707;43.618;25.342;2023-08-06T00:00:32;98737.84;;;26.00;100.00
7333;BME280;3707;43.618;25.342;2023-08-06T00:02:59;98784.59;;;26.03;100.00
7333;BME280;3707;43.618;25.342;2023-08-06T00:05:26;98782.50;;;25.69;99.91
7333;BME280;3707;43.618;25.342;2023-08-06T00:07:52;98778.28;;;25.79;100.00
7333;BME280;3707;43.618;25.342;2023-08-06T00:10:19;98746.72;;;25.74;99.55
7333;BME280;3707;43.618;25.342;2023-08-06T00:12:46;98748.22;;;25.78;97.55
7333;BME280;3707;43.618;25.342;2023-08-06T00:15:14;98777.78;;;25.99;97.10
7333;BME280;3707;43.618;25.342;2023-08-06T00:17:42;98781.16;;;25.88;98.90
7333;BME280;3707;43.618;25.342;2023-08-06T00:20:09;98777.50;;;25.64;100.00
7333;BME280;3707;43.618;25.342;2023-08-06T00:22:37;98768.91;;;25.73;100.00
7333;BME280;3707;43.618;25.342;2023-08-06T00:25:05;98767.53;;;25.68;100.00
7333;BME280;3707;43.618;25.342;2023-08-06T00:27:32;98770.31;;;25.39;100.00
7333;BME280;3707;43.618;25.342;2023-08-06T00:29:59;98739.41;;;25.11;100.00
7333;BME280;3707;43.618;25.342;2023-08-06T00:32:25;98749.09;;;24.86;100.00
7333;BME280;3707;43.618;25.342;2023-08-06T00:34:54;98752.19;;;24.78;100.00
7333;BME280;3707;43.618;25.342;2023-08-06T00:37:20;98767.06;;;24.66;100.00
7333;BME280;3707;43.618;25.342;2023-08-06T00:39:47;98750.34;;;24.38;100.00
7333;BME280;3707;43.618;25.342;2023-08-06T00:42:14;98763.78;;;24.21;100.00
7333;BME280;3707;43.618;25.342;2023-08-06T00:44:41;98743.09;;;23.83;100.00
7333;BME280;3707;43.618;25.342;2023-08-06T00:47:08;98749.34;;;23.68;100.00
7333;BME280;3707;43.618;25.342;2023-08-06T00:49:36;98764.50;;;23.50;100.00
7333;BME280;3707;43.618;25.342;2023-08-06T00:52:06;98760.44;;;23.29;100.00
7333;BME280;3707;43.618;25.342;2023-08-06T00:54:34;98759.34;;;23.02;100.00
7333;BME280;3707;43.618;25.342;2023-08-06T00:57:02;98713.50;;;22.71;100.00
7333;BME280;3707;43.618;25.342;2023-08-06T00:59:31;98759.38;;;22.86;100.00
7333;BME280;3707;43.618;25.342;2023-08-06T01:01:58;98764.47;;;22.89;100.00
7333;BME280;3707;43.618;25.342;2023-08-06T01:04:25;98773.09;;;22.93;100.00
7333;BME280;3707;43.618;25.342;2023-08-06T01:06:59;98768.72;;;23.07;100.00
7333;BME280;3707;43.618;25.342;2023-08-06T01:09:43;98767.38;;;23.00;100.00
7333;BME280;3707;43.618;25.342;2023-08-06T01:12:19;98764.91;;;22.82;100.00
7333;BME280;3707;43.618;25.342;2023-08-06T01:14:56;98759.44;;;22.69;100.00
7333;BME280;3707;43.618;25.342;2023-08-06T01:17:25;98759.16;;;22.58;100.00
7333;BME280;3707;43.618;25.342;2023-08-06T01:19:53;98736.28;;;22.41;100.00
7333;BME280;3707;43.618;25.342;2023-08-06T01:22:21;98762.22;;;22.50;100.00
7333;BME280;3707;43.618;25.342;2023-08-06T01:24:50;98775.00;;;22.58;100.00
7333;BME280;3707;43.618;25.342;2023-08-06T01:27:21;98755.56;;;22.59;100.00
7333;BME280;3707;43.618;25.342;2023-08-06T01:29:57;98764.75;;;22.52;100.00
7333;BME280;3707;43.618;25.342;2023-08-06T01:32:30;98753.81;;;22.27;100.00
7333;BME280;3707;43.618;25.342;2023-08-06T01:35:00;98762.53;;;22.29;100.00
7333;BME280;3707;43.618;25.342;2023-08-06T01:37:29;98781.88;;;22.45;100.00
7333;BME280;3707;43.618;25.342;2023-08-06T01:39:56;98781.28;;;22.40;100.00
7333;BME280;3707;43.618;25.342;2023-08-06T01:42:23;98782.66;;;22.47;100.00
7333;BME280;3707;43.618;25.342;2023-08-06T01:44:50;98757.78;;;22.51;100.00
7333;BME280;3707;43.618;25.342;2023-08-06T01:47:17;98779.06;;;22.48;100.00
7333;BME280;3707;43.618;25.342;2023-08-06T01:49:44;98786.00;;;22.50;100.00
7333;BME280;3707;43.618;25.342;2023-08-06T01:52:11;98782.13;;;22.40;100.00
7333;BME280;3707;43.618;25.342;2023-08-06T01:54:39;98784.63;;;22.43;100.00
7333;BME280;3707;43.618;25.342;2023-08-06T01:57:06;98767.97;;;22.41;100.00
7333;BME280;3707;43.618;25.342;2023-08-06T01:59:33;98765.41;;;22.24;100.00
7333;BME280;3707;43.618;25.342;2023-08-06T02:01:59;98773.25;;;22.26;100.00
7333;BME280;3707;43.618;25.342;2023-08-06T02:04:26;98764.09;;;22.15;100.00
7333;BME280;3707;43.618;25.342;2023-08-06T02:06:53;98734.63;;;22.07;100.00
7333;BME280;3707;43.618;25.342;2023-08-06T02:09:20;98770.16;;;22.17;100.00
7333;BME280;3707;43.618;25.342;2023-08-06T02:11:48;98762.34;;;22.32;100.00
7333;BME280;3707;43.618;25.342;2023-08-06T02:14:14;98755.69;;;22.40;100.00
7333;BME280;3707;43.618;25.342;2023-08-06T02:16:41;98762.91;;;22.54;100.00
7333;BME280;3707;43.618;25.342;2023-08-06T02:19:08;98769.00;;;22.39;100.00
7333;BME280;3707;43.618;25.342;2023-08-06T02:21:35;98768.38;;;22.34;100.00
7333;BME280;3707;43.618;25.342;2023-08-06T02:24:02;98759.16;;;22.58;100.00
7333;BME280;3707;43.618;25.342;2023-08-06T02:26:29;98764.59;;;22.55;100.00
7333;BME280;3707;43.618;25.342;2023-08-06T02:28:57;98723.75;;;22.45;100.00
7333;BME280;3707;43.618;25.342;2023-08-06T02:31:23;98771.81;;;22.51;100.00
7333;BME280;3707;43.618;25.342;2023-08-06T02:33:50;98767.16;;;22.56;100.00
7333;BME280;3707;43.618;25.342;2023-08-06T02:36:17;98761.94;;;22.55;100.00
7333;BME280;3707;43.618;25.342;2023-08-06T02:38:44;98674.06;;;22.20;100.00
7333;BME280;3707;43.618;25.342;2023-08-06T02:41:10;98763.66;;;22.56;100.00
7333;BME280;3707;43.618;25.342;2023-08-06T02:43:37;98769.88;;;22.55;100.00
7333;BME280;3707;43.618;25.342;2023-08-06T02:46:05;98756.41;;;22.59;100.00
7333;BME280;3707;43.618;25.342;2023-08-06T02:48:32;98772.03;;;22.64;100.00
7333;BME280;3707;43.618;25.342;2023-08-06T02:50:59;98746.06;;;22.72;100.00
7333;BME280;3707;43.618;25.342;2023-08-06T02:53:26;98775.53;;;22.80;100.00
7333;BME280;3707;43.618;25.342;2023-08-06T02:55:53;98783.53;;;22.63;100.00
7333;BME280;3707;43.618;25.342;2023-08-06T02:58:20;98798.00;;;22.56;100.00
7333;BME280;3707;43.618;25.342;2023-08-06T03:00:59;98782.78;;;22.28;100.00
7333;BME280;3707;43.618;25.342;2023-08-06T03:03:28;98800.53;;;22.42;100.00
7333;BME280;3707;43.618;25.342;2023-08-06T03:05:55;98764.72;;;22.20;100.00
7333;BME280;3707;43.618;25.342;2023-08-06T03:08:21;98789.34;;;22.37;100.00
7333;BME280;3707;43.618;25.342;2023-08-06T03:10:48;98775.56;;;22.32;100.00
7333;BME280;3707;43.618;25.342;2023-08-06T03:13:15;98792.69;;;22.40;100.00
7333;BME280;3707;43.618;25.342;2023-08-06T03:15:42;98783.75;;;22.43;100.00
7333;BME280;3707;43.618;25.342;2023-08-06T03:18:09;98774.63;;;22.48;100.00
7333;BME280;3707;43.618;25.342;2023-08-06T03:20:37;98759.81;;;22.46;100.00
7333;BME280;3707;43.618;25.342;2023-08-06T03:23:04;98768.34;;;22.51;100.00
7333;BME280;3707;43.618;25.342;2023-08-06T03:25:31;98762.28;;;22.49;100.00
7333;BME280;3707;43.618;25.342;2023-08-06T03:27:57;98743.75;;;22.33;100.00
7333;BME280;3707;43.618;25.342;2023-08-06T03:30:24;98743.78;;;22.49;100.00
7333;BME280;3707;43.618;25.342;2023-08-06T03:32:51;98747.88;;;22.39;100.00
7333;BME280;3707;43.618;25.342;2023-08-06T03:35:18;98748.34;;;22.30;100.00
7333;BME280;3707;43.618;25.342;2023-08-06T03:37:46;98758.44;;;22.39;100.00
7333;BME280;3707;43.618;25.342;2023-08-06T03:40:13;98726.31;;;22.31;100.00
7333;BME280;3707;43.618;25.342;2023-08-06T03:42:40;98770.09;;;22.35;100.00
7333;BME280;3707;43.618;25.342;2023-08-06T03:45:08;98754.44;;;22.32;100.00
7333;BME280;3707;43.618;25.342;2023-08-06T03:47:35;98770.56;;;22.10;100.00
7333;BME280;3707;43.618;25.342;2023-08-06T03:50:02;98745.19;;;22.07;100.00
7333;BME280;3707;43.618;25.342;2023-08-06T03:52:29;98676.84;;;21.68;100.00
7333;BME280;3707;43.618;25.342;2023-08-06T03:54:57;98767.47;;;22.35;100.00
7333;BME280;3707;43.618;25.342;2023-08-06T03:57:24;98772.75;;;22.35;100.00
7333;BME280;3707;43.618;25.342;2023-08-06T03:59:50;98776.19;;;22.52;100.00
7333;BME280;3707;43.618;25.342;2023-08-06T04:02:17;98776.94;;;22.71;100.00
7333;BME280;3707;43.618;25.342;2023-08-06T04:04:44;98757.09;;;22.47;100.00
7333;BME280;3707;43.618;25.342;2023-08-06T04:07:11;98769.41;;;22.80;100.00
7333;BME280;3707;43.618;25.342;2023-08-06T04:09:52;98778.38;;;22.93;100.00
7333;BME280;3707;43.618;25.342;2023-08-06T04:12:20;98790.88;;;23.05;100.00
7333;BME280;3707;43.618;25.342;2023-08-06T04:14:47;98785.88;;;23.00;100.00
7333;BME280;3707;43.618;25.342;2023-08-06T04:17:14;98796.69;;;23.27;100.00
7333;BME280;3707;43.618;25.342;2023-08-06T04:19:40;98790.84;;;23.52;100.00
7333;BME280;3707;43.618;25.342;2023-08-06T04:22:07;98798.88;;;23.80;100.00
7333;BME280;3707;43.618;25.342;2023-08-06T04:24:34;98809.44;;;24.10;100.00
7333;BME280;3707;43.618;25.342;2023-08-06T04:27:01;98804.38;;;24.35;100.00
7333;BME280;3707;43.618;25.342;2023-08-06T04:29:29;98803.44;;;24.93;100.00
7333;BME280;3707;43.618;25.342;2023-08-06T04:31:55;98729.38;;;24.76;100.00
7333;BME280;3707;43.618;25.342;2023-08-06T04:34:22;98804.94;;;25.77;100.00
7333;BME280;3707;43.618;25.342;2023-08-06T04:36:49;98801.34;;;25.91;98.77
7333;BME280;3707;43.618;25.342;2023-08-06T04:39:16;98797.19;;;25.74;99.55
7333;BME280;3707;43.618;25.342;2023-08-06T04:41:42;98785.00;;;25.18;100.00
7333;BME280;3707;43.618;25.342;2023-08-06T04:44:09;98795.75;;;25.29;100.00
7333;BME280;3707;43.618;25.342;2023-08-06T04:46:37;98790.28;;;25.45;100.00
7333;BME280;3707;43.618;25.342;2023-08-06T04:49:04;98788.53;;;24.90;100.00
7333;BME280;3707;43.618;25.342;2023-08-06T04:51:31;98774.81;;;24.69;100.00
7333;BME280;3707;43.618;25.342;2023-08-06T04:53:58;98745.59;;;24.57;100.00
7333;BME280;3707;43.618;25.342;2023-08-06T04:56:26;98785.25;;;24.58;100.00
7333;BME280;3707;43.618;25.342;2023-08-06T04:58:53;98781.91;;;24.69;100.00
7333;BME280;3707;43.618;25.342;2023-08-06T05:01:19;98766.09;;;24.82;100.00
7333;BME280;3707;43.618;25.342;2023-08-06T05:03:48;98771.19;;;25.26;100.00
7333;BME280;3707;43.618;25.342;2023-08-06T05:06:14;98781.88;;;25.38;100.00
7333;BME280;3707;43.618;25.342;2023-08-06T05:08:41;98779.88;;;25.81;100.00
7333;BME280;3707;43.618;25.342;2023-08-06T05:11:09;98776.47;;;25.79;100.00
7333;BME280;3707;43.618;25.342;2023-08-06T05:13:36;98759.00;;;26.27;97.99
7333;BME280;3707;43.618;25.342;2023-08-06T05:16:03;98746.56;;;27.13;90.18
7333;BME280;3707;43.618;25.342;2023-08-06T05:18:29;98749.91;;;27.97;85.21
7333;BME280;3707;43.618;25.342;2023-08-06T05:20:58;98691.56;;;28.17;79.96
7333;BME280;3707;43.618;25.342;2023-08-06T05:23:24;98764.34;;;29.17;74.52
7333;BME280;3707;43.618;25.342;2023-08-06T05:25:51;98769.00;;;27.80;81.32
7333;BME280;3707;43.618;25.342;2023-08-06T05:28:18;98759.00;;;26.89;88.87
7333;BME280;3707;43.618;25.342;2023-08-06T05:30:45;98768.38;;;26.82;91.42
7333;BME280;3707;43.618;25.342;2023-08-06T05:33:11;98758.00;;;26.15;96.96
7333;BME280;3707;43.618;25.342;2023-08-06T05:35:40;98756.94;;;26.05;98.65
7333;BME280;3707;43.618;25.342;2023-08-06T05:38:08;98740.34;;;25.64;100.00
7333;BME280;3707;43.618;25.342;2023-08-06T05:40:35;98750.84;;;25.53;100.00
7333;BME280;3707;43.618;25.342;2023-08-06T05:43:02;98742.44;;;25.59;100.00
7333;BME280;3707;43.618;25.342;2023-08-06T05:45:28;98753.31;;;25.42;100.00
7333;BME280;3707;43.618;25.342;2023-08-06T05:47:55;98760.69;;;25.51;100.00
7333;BME280;3707;43.618;25.342;2023-08-06T05:50:23;98734.84;;;25.40;100.00
7333;BME280;3707;43.618;25.342;2023-08-06T05:52:50;98759.94;;;25.49;100.00
7333;BME280;3707;43.618;25.342;2023-08-06T05:55:19;98755.28;;;25.52;100.00
7333;BME280;3707;43.618;25.342;2023-08-06T05:57:46;98775.97;;;25.21;100.00
7333;BME280;3707;43.618;25.342;2023-08-06T06:00:13;98780.50;;;25.18;100.00
7333;BME280;3707;43.618;25.342;2023-08-06T06:02:40;98768.31;;;25.43;100.00
7333;BME280;3707;43.618;25.342;2023-08-06T06:05:07;98778.09;;;26.07;100.00
7333;BME280;3707;43.618;25.342;2023-08-06T06:07:34;98767.69;;;26.42;100.00
7333;BME280;3707;43.618;25.342;2023-08-06T06:10:01;98771.63;;;26.49;100.00
7333;BME280;3707;43.618;25.342;2023-08-06T06:12:29;98775.00;;;26.63;100.00
7333;BME280;3707;43.618;25.342;2023-08-06T06:14:56;98773.66;;;26.33;100.00
7333;BME280;3707;43.618;25.342;2023-08-06T06:17:23;98763.09;;;26.44;100.00
7333;BME280;3707;43.618;25.342;2023-08-06T06:19:49;98768.00;;;26.37;100.00
7333;BME280;3707;43.618;25.342;2023-08-06T06:22:16;98771.28;;;26.15;100.00
7333;BME280;3707;43.618;25.342;2023-08-06T06:24:43;98779.28;;;26.41;100.00
7333;BME280;3707;43.618;25.342;2023-08-06T06:27:10;98772.47;;;26.37;100.00
7333;BME280;3707;43.618;25.342;2023-08-06T06:29:38;98757.63;;;26.22;100.00
7333;BME280;3707;43.618;25.342;2023-08-06T06:32:06;98772.47;;;26.37;100.00
7333;BME280;3707;43.618;25.342;2023-08-06T06:34:33;98777.00;;;26.85;100.00
7333;BME280;3707;43.618;25.342;2023-08-06T06:36:59;98759.84;;;27.37;98.70
7333;BME280;3707;43.618;25.342;2023-08-06T06:39:26;98775.06;;;27.71;96.71
7333;BME280;3707;43.618;25.342;2023-08-06T06:41:53;98743.94;;;27.72;97.50
7333;BME280;3707;43.618;25.342;2023-08-06T06:44:19;98775.91;;;27.72;98.29
7333;BME280;3707;43.618;25.342;2023-08-06T06:46:48;98772.44;;;28.04;95.60
7333;BME280;3707;43.618;25.342;2023-08-06T06:49:14;98756.19;;;27.85;94.78
7333;BME280;3707;43.618;25.342;2023-08-06T06:51:41;98741.28;;;27.94;97.01
7333;BME280;3707;43.618;25.342;2023-08-06T06:54:08;98763.81;;;28.25;95.21
7333;BME280;3707;43.618;25.342;2023-08-06T06:56:35;98768.78;;;27.83;98.24
7333;BME280;3707;43.618;25.342;2023-08-06T06:59:01;98754.91;;;27.56;100.00
7333;BME280;3707;43.618;25.342;2023-08-06T07:01:28;98749.84;;;28.10;99.91
7333;BME280;3707;43.618;25.342;2023-08-06T07:03:56;98748.88;;;28.22;97.76
7333;BME280;3707;43.618;25.342;2023-08-06T07:06:23;98755.94;;;28.45;96.46
7333;BME280;3707;43.618;25.342;2023-08-06T07:08:50;98749.91;;;27.97;99.46
7333;BME280;3707;43.618;25.342;2023-08-06T07:11:17;98759.69;;;28.32;97.55
7333;BME280;3707;43.618;25.342;2023-08-06T07:13:44;98747.50;;;28.05;100.00
7333;BME280;3707;43.618;25.342;2023-08-06T07:16:10;98738.13;;;27.78;100.00
7333;BME280;3707;43.618;25.342;2023-08-06T07:18:37;98760.13;;;28.03;100.00
7333;BME280;3707;43.618;25.342;2023-08-06T07:21:06;98758.00;;;27.85;100.00
7333;BME280;3707;43.618;25.342;2023-08-06T07:23:32;98762.94;;;27.67;100.00
7333;BME280;3707;43.618;25.342;2023-08-06T07:25:59;98759.00;;;28.06;100.00
7333;BME280;3707;43.618;25.342;2023-08-06T07:28:26;98765.19;;;28.06;100.00
7333;BME280;3707;43.618;25.342;2023-08-06T07:30:53;98767.25;;;27.57;100.00
7333;BME280;3707;43.618;25.342;2023-08-06T07:33:20;98775.63;;;27.64;100.00
7333;BME280;3707;43.618;25.342;2023-08-06T07:35:46;98786.34;;;27.86;100.00
7333;BME280;3707;43.618;25.342;2023-08-06T07:38:14;98798.88;;;27.73;100.00
7333;BME280;3707;43.618;25.342;2023-08-06T07:40:41;98796.69;;;27.67;100.00
7333;BME280;3707;43.618;25.342;2023-08-06T07:43:08;98821.91;;;28.08;100.00
7333;BME280;3707;43.618;25.342;2023-08-06T07:45:35;98822.69;;;28.22;100.00
7333;BME280;3707;43.618;25.342;2023-08-06T07:48:02;98808.63;;;28.20;100.00
7333;BME280;3707;43.618;25.342;2023-08-06T07:50:29;98841.56;;;28.19;100.00
7333;BME280;3707;43.618;25.342;2023-08-06T07:52:56;98844.25;;;27.95;100.00
7333;BME280;3707;43.618;25.342;2023-08-06T07:55:25;98854.50;;;27.77;100.00
7333;BME280;3707;43.618;25.342;2023-08-06T07:57:51;98854.69;;;27.98;100.00
7333;BME280;3707;43.618;25.342;2023-08-06T08:00:18;98862.13;;;27.58;100.00
7333;BME280;3707;43.618;25.342;2023-08-06T08:02:45;98866.25;;;27.38;100.00
7333;BME280;3707;43.618;25.342;2023-08-06T08:05:12;98797.63;;;26.94;100.00
7333;BME280;3707;43.618;25.342;2023-08-06T08:07:39;98873.59;;;27.47;100.00
7333;BME280;3707;43.618;25.342;2023-08-06T08:10:07;98887.16;;;27.32;100.00
7333;BME280;3707;43.618;25.342;2023-08-06T08:12:35;98890.09;;;27.40;100.00
7333;BME280;3707;43.618;25.342;2023-08-06T08:15:02;98884.00;;;27.01;100.00
7333;BME280;3707;43.618;25.342;2023-08-06T08:17:29;98896.38;;;26.77;100.00
7333;BME280;3707;43.618;25.342;2023-08-06T08:19:56;98902.97;;;26.84;100.00
7333;BME280;3707;43.618;25.342;2023-08-06T08:22:23;98919.47;;;26.64;100.00
7333;BME280;3707;43.618;25.342;2023-08-06T08:24:50;98933.50;;;25.87;100.00
7333;BME280;3707;43.618;25.342;2023-08-06T08:27:17;98922.25;;;25.57;100.00
7333;BME280;3707;43.618;25.342;2023-08-06T08:29:45;98928.69;;;25.39;100.00
7333;BME280;3707;43.618;25.342;2023-08-06T08:32:11;98935.81;;;24.82;100.00
7333;BME280;3707;43.618;25.342;2023-08-06T08:34:38;98930.22;;;24.72;100.00
7333;BME280;3707;43.618;25.342;2023-08-06T08:37:05;98894.84;;;24.29;100.00
7333;BME280;3707;43.618;25.342;2023-08-06T08:39:32;98883.19;;;24.17;100.00
7333;BME280;3707;43.618;25.342;2023-08-06T08:41:59;98850.78;;;24.12;100.00
7333;BME280;3707;43.618;25.342;2023-08-06T08:44:27;98878.06;;;24.14;100.00
7333;BME280;3707;43.618;25.342;2023-08-06T08:46:57;98862.94;;;24.16;100.00
7333;BME280;3707;43.618;25.342;2023-08-06T08:49:24;98825.84;;;24.16;100.00
7333;BME280;3707;43.618;25.342;2023-08-06T08:51:53;98770.44;;;23.84;100.00
7333;BME280;3707;43.618;25.342;2023-08-06T08:54:23;98774.13;;;23.95;100.00
7333;BME280;3707;43.618;25.342;2023-08-06T08:56:49;98756.97;;;24.16;100.00
7333;BME280;3707;43.618;25.342;2023-08-06T08:59:16;98759.63;;;24.31;100.00
7333;BME280;3707;43.618;25.342;2023-08-06T09:01:45;98803.63;;;24.47;100.00
7333;BME280;3707;43.618;25.342;2023-08-06T09:04:18;98815.94;;;24.34;100.00
7333;BME280;3707;43.618;25.342;2023-08-06T09:06:47;98725.75;;;24.07;100.00
7333;BME280;3707;43.618;25.342;2023-08-06T09:09:19;98775.31;;;24.34;100.00
7333;BME280;3707;43.618;25.342;2023-08-06T09:11:49;98767.56;;;24.16;100.00
7333;BME280;3707;43.618;25.342;2023-08-06T09:14:16;98756.22;;;24.29;100.00
7333;BME280;3707;43.618;25.342;2023-08-06T09:16:43;98762.84;;;24.50;100.00
7333;BME280;3707;43.618;25.342;2023-08-06T09:19:11;98768.66;;;24.69;100.00
7333;BME280;3707;43.618;25.342;2023-08-06T09:21:40;98739.41;;;24.85;100.00
7333;BME280;3707;43.618;25.342;2023-08-06T09:24:07;98731.22;;;24.61;100.00
7333;BME280;3707;43.618;25.342;2023-08-06T09:26:35;98736.53;;;24.47;100.00
7333;BME280;3707;43.618;25.342;2023-08-06T09:29:05;98744.31;;;24.22;100.00
7333;BME280;3707;43.618;25.342;2023-08-06T09:31:41;98760.72;;;24.12;100.00
7333;BME280;3707;43.618;25.342;2023-08-06T09:34:11;98764.13;;;23.86;100.00
7333;BME280;3707;43.618;25.342;2023-08-06T09:36:43;98805.59;;;24.30;100.00
7333;BME280;3707;43.618;25.342;2023-08-06T09:39:13;98828.03;;;24.95;100.00
7333;BME280;3707;43.618;25.342;2023-08-06T09:41:40;98829.66;;;24.83;100.00
7333;BME280;3707;43.618;25.342;2023-08-06T09:44:15;98825.47;;;25.07;100.00
7333;BME280;3707;43.618;25.342;2023-08-06T09:46:43;98849.94;;;24.84;100.00
7333;BME280;3707;43.618;25.342;2023-08-06T09:49:13;98841.75;;;24.73;100.00
7333;BME280;3707;43.618;25.342;2023-08-06T09:51:40;98822.06;;;24.77;100.00
7333;BME280;3707;43.618;25.342;2023-08-06T09:54:11;98830.69;;;24.66;100.00
7333;BME280;3707;43.618;25.342;2023-08-06T09:56:39;98853.38;;;24.86;100.00
7333;BME280;3707;43.618;25.342;2023-08-06T09:59:07;98837.78;;;24.80;100.00
7333;BME280;3707;43.618;25.342;2023-08-06T10:01:34;98842.50;;;25.17;100.00
7333;BME280;3707;43.618;25.342;2023-08-06T10:04:03;98858.34;;;25.05;100.00
7333;BME280;3707;43.618;25.342;2023-08-06T10:06:34;98855.41;;;25.09;100.00
7333;BME280;3707;43.618;25.342;2023-08-06T10:09:01;98866.41;;;25.03;100.00
7333;BME280;3707;43.618;25.342;2023-08-06T10:11:30;98858.22;;;25.21;100.00
7333;BME280;3707;43.618;25.342;2023-08-06T10:14:01;98870.91;;;25.83;100.00
7333;BME280;3707;43.618;25.342;2023-08-06T10:16:31;98853.00;;;25.99;100.00
7333;BME280;3707;43.618;25.342;2023-08-06T10:18:59;98850.53;;;26.36;100.00
7333;BME280;3707;43.618;25.342;2023-08-06T10:21:27;98871.78;;;26.48;100.00
7333;BME280;3707;43.618;25.342;2023-08-06T10:23:56;98863.91;;;26.97;100.00
7333;BME280;3707;43.618;25.342;2023-08-06T10:26:25;98881.28;;;27.27;100.00
7333;BME280;3707;43.618;25.342;2023-08-06T10:28:54;98872.75;;;27.71;100.00
7333;BME280;3707;43.618;25.342;2023-08-06T10:31:53;98866.41;;;27.24;100.00
7333;BME280;3707;43.618;25.342;2023-08-06T10:34:20;98874.03;;;26.92;100.00
7333;BME280;3707;43.618;25.342;2023-08-06T10:36:47;98877.19;;;26.72;100.00
7333;BME280;3707;43.618;25.342;2023-08-06T10:39:14;98872.66;;;26.74;100.00
7333;BME280;3707;43.618;25.342;2023-08-06T10:41:42;98824.25;;;26.44;100.00
7333;BME280;3707;43.618;25.342;2023-08-06T10:44:11;98845.53;;;26.44;100.00
7333;BME280;3707;43.618;25.342;2023-08-06T10:46:38;98863.28;;;26.56;100.00
7333;BME280;3707;43.618;25.342;2023-08-06T10:49:05;98857.53;;;26.24;100.00
7333;BME280;3707;43.618;25.342;2023-08-06T10:51:33;98867.41;;;25.83;100.00
7333;BME280;3707;43.618;25.342;2023-08-06T10:53:59;98856.81;;;25.95;100.00
7333;BME280;3707;43.618;25.342;2023-08-06T10:56:26;98841.25;;;25.64;100.00
7333;BME280;3707;43.618;25.342;2023-08-06T10:58:54;98836.13;;;25.61;100.00
7333;BME280;3707;43.618;25.342;2023-08-06T11:01:23;98819.25;;;25.48;100.00
7333;BME280;3707;43.618;25.342;2023-08-06T11:03:51;98800.94;;;25.04;100.00
7333;BME280;3707;43.618;25.342;2023-08-06T11:06:19;98822.19;;;24.90;100.00
7333;BME280;3707;43.618;25.342;2023-08-06T11:08:48;98835.81;;;24.84;100.00
7333;BME280;3707;43.618;25.342;2023-08-06T11:11:16;98848.41;;;24.94;100.00
7333;BME280;3707;43.618;25.342;2023-08-06T11:13:43;98876.91;;;24.91;100.00
7333;BME280;3707;43.618;25.342;2023-08-06T11:16:12;98872.72;;;24.44;100.00
7333;BME280;3707;43.618;25.342;2023-08-06T11:18:41;98831.06;;;24.32;100.00
7333;BME280;3707;43.618;25.342;2023-08-06T11:21:08;98828.03;;;24.52;100.00
7333;BME280;3707;43.618;25.342;2023-08-06T11:23:35;98798.63;;;24.43;100.00
7333;BME280;3707;43.618;25.342;2023-08-06T11:26:02;98806.94;;;24.37;100.00
7333;BME280;3707;43.618;25.342;2023-08-06T11:28:30;98853.66;;;24.24;100.00
7333;BME280;3707;43.618;25.342;2023-08-06T11:30:57;98859.56;;;24.43;100.00
7333;BME280;3707;43.618;25.342;2023-08-06T11:33:27;98861.44;;;24.41;100.00
7333;BME280;3707;43.618;25.342;2023-08-06T11:35:56;98862.78;;;24.76;100.00
7333;BME280;3707;43.618;25.342;2023-08-06T11:38:25;98874.06;;;24.94;100.00
7333;BME280;3707;43.618;25.342;2023-08-06T11:40:52;98793.22;;;24.30;100.00
7333;BME280;3707;43.618;25.342;2023-08-06T11:43:19;98849.34;;;24.51;100.00
7333;BME280;3707;43.618;25.342;2023-08-06T11:45:48;98837.41;;;24.58;100.00
7333;BME280;3707;43.618;25.342;2023-08-06T11:48:15;98848.72;;;25.31;100.00
7333;BME280;3707;43.618;25.342;2023-08-06T11:50:42;98812.91;;;25.24;100.00
7333;BME280;3707;43.618;25.342;2023-08-06T11:53:12;98865.34;;;25.61;100.00
7333;BME280;3707;43.618;25.342;2023-08-06T11:55:40;98863.34;;;25.64;100.00
7333;BME280;3707;43.618;25.342;2023-08-06T11:58:09;98863.09;;;25.94;100.00
7333;BME280;3707;43.618;25.342;2023-08-06T12:00:36;98865.59;;;26.23;100.00
7333;BME280;3707;43.618;25.342;2023-08-06T12:03:04;98872.34;;;26.79;100.00
7333;BME280;3707;43.618;25.342;2023-08-06T12:05:32;98855.22;;;27.19;100.00
7333;BME280;3707;43.618;25.342;2023-08-06T12:08:00;98876.22;;;27.60;100.00
7333;BME280;3707;43.618;25.342;2023-08-06T12:10:30;98851.84;;;27.41;100.00
7333;BME280;3707;43.618;25.342;2023-08-06T12:12:57;98808.56;;;27.02;100.00
7333;BME280;3707;43.618;25.342;2023-08-06T12:15:24;98877.91;;;27.25;100.00
7333;BME280;3707;43.618;25.342;2023-08-06T12:17:51;98887.16;;;27.32;100.00
7333;BME280;3707;43.618;25.342;2023-08-06T12:20:18;98889.25;;;26.90;100.00
7333;BME280;3707;43.618;25.342;2023-08-06T12:22:45;98886.81;;;27.00;100.00
7333;BME280;3707;43.618;25.342;2023-08-06T12:25:12;98810.06;;;26.69;100.00
7333;BME280;3707;43.618;25.342;2023-08-06T12:27:41;98874.78;;;27.31;100.00
7333;BME280;3707;43.618;25.342;2023-08-06T12:30:10;98869.75;;;27.51;100.00
7333;BME280;3707;43.618;25.342;2023-08-06T12:32:37;98863.81;;;27.83;100.00
7333;BME280;3707;43.618;25.342;2023-08-06T12:35:05;98872.06;;;27.56;100.00
7333;BME280;3707;43.618;25.342;2023-08-06T12:37:32;98876.72;;;27.89;100.00
7333;BME280;3707;43.618;25.342;2023-08-06T12:39:59;98862.69;;;27.50;100.00
7333;BME280;3707;43.618;25.342;2023-08-06T12:42:26;98847.38;;;27.18;100.00
7333;BME280;3707;43.618;25.342;2023-08-06T12:44:54;98838.31;;;27.44;100.00
7333;BME280;3707;43.618;25.342;2023-08-06T12:47:21;98848.50;;;27.63;100.00
7333;BME280;3707;43.618;25.342;2023-08-06T12:49:48;98832.00;;;27.57;100.00
7333;BME280;3707;43.618;25.342;2023-08-06T12:52:16;98841.53;;;27.49;100.00
7333;BME280;3707;43.618;25.342;2023-08-06T12:54:45;98836.56;;;27.68;100.00
7333;BME280;3707;43.618;25.342;2023-08-06T12:57:12;98832.91;;;27.69;100.00
7333;BME280;3707;43.618;25.342;2023-08-06T12:59:39;98828.31;;;27.71;100.00
7333;BME280;3707;43.618;25.342;2023-08-06T13:02:07;98829.56;;;27.78;100.00
7333;BME280;3707;43.618;25.342;2023-08-06T13:04:34;98819.34;;;27.72;100.00